Raymar, Iowa
Current Conditions -  °F | °C
As of 2:36 PM on Saturday 20 Dec 2014 (Local Time) from KALO Reporting Station
Haze Haze  
Wind Chill: 26°   Ceiling: 1900
Heat Index: 32°   Visibility: 5mi
Dew Point: 31°   Wind: 7mph
Humidity: 96%   Direction: 180°S
Pressure: 30.14"   Gusts: NA
Location:  42.4775°N, 92.2749°W
Report Text: KALO 202036Z 18006KT 5SM BR FEW007 SCT011 OVC019 00/M01 A3014 RMK AO2 T00001006
Loading
Personal Weather Stations






























Interactive Weather Map New forecast layout! Learn more

10-Day Weather Forecast

Advertisements
Track Severe Weather on mobile